sensor_id;sensor_type;location;lat;lon;timestamp;P1;durP1;ratioP1;P2;durP2;ratioP2
48516;SDS011;34310;51.904;4.256;2022-10-31T00:01:29;6.22;;;4.97;;
48516;SDS011;34310;51.904;4.256;2022-10-31T00:04:00;7.03;;;5.30;;
48516;SDS011;34310;51.904;4.256;2022-10-31T00:06:28;8.10;;;5.40;;
48516;SDS011;34310;51.904;4.256;2022-10-31T00:08:57;7.57;;;5.47;;
48516;SDS011;34310;51.904;4.256;2022-10-31T00:11:26;6.78;;;5.47;;
48516;SDS011;34310;51.904;4.256;2022-10-31T00:13:53;7.60;;;5.63;;
48516;SDS011;34310;51.904;4.256;2022-10-31T00:16:22;6.45;;;5.43;;
48516;SDS011;34310;51.904;4.256;2022-10-31T00:18:51;7.65;;;5.68;;
48516;SDS011;34310;51.904;4.256;2022-10-31T00:21:19;8.23;;;5.28;;
48516;SDS011;34310;51.904;4.256;2022-10-31T00:23:47;6.35;;;5.07;;
48516;SDS011;34310;51.904;4.256;2022-10-31T00:26:14;6.68;;;5.28;;
48516;SDS011;34310;51.904;4.256;2022-10-31T00:28:42;6.63;;;5.50;;
48516;SDS011;34310;51.904;4.256;2022-10-31T00:31:10;6.22;;;5.35;;
48516;SDS011;34310;51.904;4.256;2022-10-31T00:33:38;6.60;;;5.45;;
48516;SDS011;34310;51.904;4.256;2022-10-31T00:36:07;5.55;;;4.72;;
48516;SDS011;34310;51.904;4.256;2022-10-31T00:38:37;6.78;;;5.47;;
48516;SDS011;34310;51.904;4.256;2022-10-31T00:41:05;5.80;;;4.35;;
48516;SDS011;34310;51.904;4.256;2022-10-31T00:43:32;7.10;;;5.25;;
48516;SDS011;34310;51.904;4.256;2022-10-31T00:46:00;7.70;;;5.03;;
48516;SDS011;34310;51.904;4.256;2022-10-31T00:48:31;5.32;;;4.43;;
48516;SDS011;34310;51.904;4.256;2022-10-31T00:50:58;7.38;;;4.65;;
48516;SDS011;34310;51.904;4.256;2022-10-31T00:53:25;4.95;;;4.05;;
48516;SDS011;34310;51.904;4.256;2022-10-31T00:55:52;5.28;;;4.53;;
48516;SDS011;34310;51.904;4.256;2022-10-31T00:58:20;4.75;;;4.18;;
48516;SDS011;34310;51.904;4.256;2022-10-31T01:00:50;5.80;;;4.32;;
48516;SDS011;34310;51.904;4.256;2022-10-31T01:03:25;5.25;;;4.15;;
48516;SDS011;34310;51.904;4.256;2022-10-31T01:05:55;5.97;;;4.22;;
48516;SDS011;34310;51.904;4.256;2022-10-31T01:08:22;6.88;;;4.47;;
48516;SDS011;34310;51.904;4.256;2022-10-31T01:11:07;4.70;;;4.03;;
48516;SDS011;34310;51.904;4.256;2022-10-31T01:13:46;7.45;;;4.07;;
48516;SDS011;34310;51.904;4.256;2022-10-31T01:16:17;5.25;;;3.78;;
48516;SDS011;34310;51.904;4.256;2022-10-31T01:18:46;4.85;;;4.22;;
48516;SDS011;34310;51.904;4.256;2022-10-31T01:21:18;5.60;;;4.18;;
48516;SDS011;34310;51.904;4.256;2022-10-31T01:23:47;5.15;;;4.00;;
48516;SDS011;34310;51.904;4.256;2022-10-31T01:26:16;4.93;;;3.83;;
48516;SDS011;34310;51.904;4.256;2022-10-31T01:28:46;4.43;;;3.83;;
48516;SDS011;34310;51.904;4.256;2022-10-31T01:31:16;5.45;;;3.90;;
48516;SDS011;34310;51.904;4.256;2022-10-31T01:33:45;4.43;;;3.90;;
48516;SDS011;34310;51.904;4.256;2022-10-31T01:36:23;4.10;;;3.55;;
48516;SDS011;34310;51.904;4.256;2022-10-31T01:38:55;5.40;;;3.78;;
48516;SDS011;34310;51.904;4.256;2022-10-31T01:41:25;4.65;;;3.50;;
48516;SDS011;34310;51.904;4.256;2022-10-31T01:46:23;4.97;;;3.75;;
48516;SDS011;34310;51.904;4.256;2022-10-31T01:48:55;4.47;;;3.60;;
48516;SDS011;34310;51.904;4.256;2022-10-31T01:51:27;3.97;;;3.45;;
48516;SDS011;34310;51.904;4.256;2022-10-31T01:54:00;4.32;;;3.65;;
48516;SDS011;34310;51.904;4.256;2022-10-31T01:56:32;4.45;;;3.35;;
48516;SDS011;34310;51.904;4.256;2022-10-31T01:59:05;4.70;;;3.47;;
48516;SDS011;34310;51.904;4.256;2022-10-31T02:01:35;6.05;;;3.38;;
48516;SDS011;34310;51.904;4.256;2022-10-31T02:04:04;5.03;;;3.35;;
48516;SDS011;34310;51.904;4.256;2022-10-31T02:06:37;4.35;;;3.30;;
48516;SDS011;34310;51.904;4.256;2022-10-31T02:09:09;4.13;;;3.30;;
48516;SDS011;34310;51.904;4.256;2022-10-31T02:11:38;5.30;;;3.38;;
48516;SDS011;34310;51.904;4.256;2022-10-31T02:14:07;4.28;;;3.45;;
48516;SDS011;34310;51.904;4.256;2022-10-31T02:16:34;3.67;;;3.10;;
48516;SDS011;34310;51.904;4.256;2022-10-31T02:19:01;3.70;;;3.30;;
48516;SDS011;34310;51.904;4.256;2022-10-31T02:38:27;3.70;;;3.03;;
48516;SDS011;34310;51.904;4.256;2022-10-31T02:44:10;3.63;;;3.03;;
48516;SDS011;34310;51.904;4.256;2022-10-31T02:47:05;3.28;;;2.92;;
48516;SDS011;34310;51.904;4.256;2022-10-31T02:52:31;3.63;;;2.90;;
48516;SDS011;34310;51.904;4.256;2022-10-31T02:57:54;3.22;;;2.90;;
48516;SDS011;34310;51.904;4.256;2022-10-31T03:00:48;3.20;;;2.90;;
48516;SDS011;34310;51.904;4.256;2022-10-31T03:06:16;3.55;;;3.00;;
48516;SDS011;34310;51.904;4.256;2022-10-31T03:09:41;5.22;;;2.97;;
48516;SDS011;34310;51.904;4.256;2022-10-31T03:12:33;4.18;;;3.20;;
48516;SDS011;34310;51.904;4.256;2022-10-31T03:14:38;3.63;;;2.80;;
48516;SDS011;34310;51.904;4.256;2022-10-31T03:17:14;3.05;;;2.75;;
48516;SDS011;34310;51.904;4.256;2022-10-31T03:19:48;3.40;;;2.90;;
48516;SDS011;34310;51.904;4.256;2022-10-31T03:22:23;3.88;;;3.35;;
48516;SDS011;34310;51.904;4.256;2022-10-31T03:24:55;3.20;;;2.88;;
48516;SDS011;34310;51.904;4.256;2022-10-31T03:27:25;3.90;;;2.80;;
48516;SDS011;34310;51.904;4.256;2022-10-31T03:29:57;3.72;;;2.80;;
48516;SDS011;34310;51.904;4.256;2022-10-31T03:32:29;3.40;;;3.10;;
48516;SDS011;34310;51.904;4.256;2022-10-31T03:35:03;3.42;;;2.97;;
48516;SDS011;34310;51.904;4.256;2022-10-31T03:37:32;3.95;;;3.22;;
48516;SDS011;34310;51.904;4.256;2022-10-31T03:40:02;3.75;;;3.40;;
48516;SDS011;34310;51.904;4.256;2022-10-31T03:42:33;3.83;;;3.05;;
48516;SDS011;34310;51.904;4.256;2022-10-31T03:45:23;4.05;;;3.00;;
48516;SDS011;34310;51.904;4.256;2022-10-31T03:47:53;3.40;;;3.00;;
48516;SDS011;34310;51.904;4.256;2022-10-31T03:50:23;4.07;;;3.42;;
48516;SDS011;34310;51.904;4.256;2022-10-31T03:53:04;4.25;;;3.67;;
48516;SDS011;34310;51.904;4.256;2022-10-31T03:58:12;4.13;;;3.60;;
48516;SDS011;34310;51.904;4.256;2022-10-31T04:01:03;5.20;;;3.92;;
48516;SDS011;34310;51.904;4.256;2022-10-31T04:03:35;3.65;;;3.25;;
48516;SDS011;34310;51.904;4.256;2022-10-31T04:06:05;3.83;;;3.40;;
48516;SDS011;34310;51.904;4.256;2022-10-31T04:08:38;4.30;;;3.60;;
48516;SDS011;34310;51.904;4.256;2022-10-31T04:11:09;3.58;;;3.28;;
48516;SDS011;34310;51.904;4.256;2022-10-31T04:13:39;4.07;;;3.67;;
48516;SDS011;34310;51.904;4.256;2022-10-31T04:16:10;4.72;;;3.55;;
48516;SDS011;34310;51.904;4.256;2022-10-31T04:18:42;4.20;;;3.80;;
48516;SDS011;34310;51.904;4.256;2022-10-31T04:21:10;4.70;;;4.10;;
48516;SDS011;34310;51.904;4.256;2022-10-31T04:23:37;4.95;;;4.05;;
48516;SDS011;34310;51.904;4.256;2022-10-31T04:26:04;5.03;;;3.90;;
48516;SDS011;34310;51.904;4.256;2022-10-31T04:28:32;4.07;;;3.60;;
48516;SDS011;34310;51.904;4.256;2022-10-31T04:30:59;4.20;;;3.80;;
48516;SDS011;34310;51.904;4.256;2022-10-31T04:33:27;4.40;;;4.00;;
48516;SDS011;34310;51.904;4.256;2022-10-31T04:35:54;4.57;;;3.90;;
48516;SDS011;34310;51.904;4.256;2022-10-31T04:38:21;4.43;;;3.88;;
48516;SDS011;34310;51.904;4.256;2022-10-31T04:40:49;4.32;;;3.92;;
48516;SDS011;34310;51.904;4.256;2022-10-31T04:43:16;4.47;;;4.07;;
48516;SDS011;34310;51.904;4.256;2022-10-31T04:45:46;4.75;;;4.00;;
48516;SDS011;34310;51.904;4.256;2022-10-31T04:48:13;4.07;;;3.67;;
48516;SDS011;34310;51.904;4.256;2022-10-31T04:50:41;4.55;;;4.13;;
48516;SDS011;34310;51.904;4.256;2022-10-31T04:53:08;5.15;;;4.13;;
48516;SDS011;34310;51.904;4.256;2022-10-31T04:55:36;5.32;;;4.40;;
48516;SDS011;34310;51.904;4.256;2022-10-31T04:58:03;4.55;;;4.05;;
48516;SDS011;34310;51.904;4.256;2022-10-31T05:00:31;5.55;;;4.68;;
48516;SDS011;34310;51.904;4.256;2022-10-31T05:02:58;4.10;;;3.70;;
48516;SDS011;34310;51.904;4.256;2022-10-31T05:05:28;6.07;;;4.75;;
48516;SDS011;34310;51.904;4.256;2022-10-31T05:07:56;5.03;;;4.18;;
48516;SDS011;34310;51.904;4.256;2022-10-31T05:10:25;4.30;;;3.88;;
48516;SDS011;34310;51.904;4.256;2022-10-31T05:12:55;4.68;;;4.28;;
48516;SDS011;34310;51.904;4.256;2022-10-31T05:15:25;4.90;;;4.13;;
48516;SDS011;34310;51.904;4.256;2022-10-31T05:17:54;5.80;;;4.45;;
48516;SDS011;34310;51.904;4.256;2022-10-31T05:20:22;5.57;;;4.57;;
48516;SDS011;34310;51.904;4.256;2022-10-31T05:22:52;4.78;;;4.30;;
48516;SDS011;34310;51.904;4.256;2022-10-31T05:25:22;6.18;;;4.35;;
48516;SDS011;34310;51.904;4.256;2022-10-31T05:27:50;4.63;;;4.07;;
48516;SDS011;34310;51.904;4.256;2022-10-31T05:30:19;4.95;;;4.30;;
48516;SDS011;34310;51.904;4.256;2022-10-31T05:32:49;5.97;;;4.03;;
48516;SDS011;34310;51.904;4.256;2022-10-31T05:35:18;4.75;;;4.25;;
48516;SDS011;34310;51.904;4.256;2022-10-31T05:37:56;5.05;;;4.43;;
48516;SDS011;34310;51.904;4.256;2022-10-31T05:40:24;5.60;;;4.10;;
48516;SDS011;34310;51.904;4.256;2022-10-31T05:42:53;5.30;;;4.07;;
48516;SDS011;34310;51.904;4.256;2022-10-31T05:45:22;6.55;;;4.50;;
48516;SDS011;34310;51.904;4.256;2022-10-31T05:47:59;5.63;;;4.28;;
48516;SDS011;34310;51.904;4.256;2022-10-31T05:50:29;4.75;;;4.25;;
48516;SDS011;34310;51.904;4.256;2022-10-31T05:52:58;4.57;;;4.10;;
48516;SDS011;34310;51.904;4.256;2022-10-31T05:55:27;4.40;;;4.00;;
48516;SDS011;34310;51.904;4.256;2022-10-31T05:57:55;4.30;;;3.90;;
48516;SDS011;34310;51.904;4.256;2022-10-31T06:00:24;4.05;;;3.65;;
48516;SDS011;34310;51.904;4.256;2022-10-31T06:03:02;4.70;;;4.20;;
48516;SDS011;34310;51.904;4.256;2022-10-31T06:05:32;4.20;;;3.80;;
48516;SDS011;34310;51.904;4.256;2022-10-31T06:07:59;4.57;;;4.07;;
48516;SDS011;34310;51.904;4.256;2022-10-31T06:10:27;5.03;;;4.13;;
48516;SDS011;34310;51.904;4.256;2022-10-31T06:12:55;5.45;;;4.30;;
48516;SDS011;34310;51.904;4.256;2022-10-31T06:15:22;4.68;;;4.22;;
48516;SDS011;34310;51.904;4.256;2022-10-31T06:18:03;5.13;;;4.43;;
48516;SDS011;34310;51.904;4.256;2022-10-31T06:20:32;4.30;;;3.90;;
48516;SDS011;34310;51.904;4.256;2022-10-31T06:23:00;5.00;;;4.28;;
48516;SDS011;34310;51.904;4.256;2022-10-31T06:25:28;4.65;;;4.25;;
48516;SDS011;34310;51.904;4.256;2022-10-31T06:27:55;4.72;;;4.25;;
48516;SDS011;34310;51.904;4.256;2022-10-31T06:30:23;5.45;;;4.60;;
48516;SDS011;34310;51.904;4.256;2022-10-31T06:32:50;4.72;;;4.25;;
48516;SDS011;34310;51.904;4.256;2022-10-31T06:35:18;5.10;;;4.43;;
48516;SDS011;34310;51.904;4.256;2022-10-31T06:37:51;6.13;;;4.95;;
48516;SDS011;34310;51.904;4.256;2022-10-31T06:42:47;5.20;;;4.70;;
48516;SDS011;34310;51.904;4.256;2022-10-31T06:45:21;6.43;;;4.57;;
48516;SDS011;34310;51.904;4.256;2022-10-31T06:47:52;6.75;;;4.82;;
48516;SDS011;34310;51.904;4.256;2022-10-31T06:50:40;6.20;;;4.95;;
48516;SDS011;34310;51.904;4.256;2022-10-31T06:53:07;5.72;;;5.13;;
48516;SDS011;34310;51.904;4.256;2022-10-31T06:55:40;6.38;;;4.65;;
48516;SDS011;34310;51.904;4.256;2022-10-31T06:58:08;5.63;;;4.55;;
48516;SDS011;34310;51.904;4.256;2022-10-31T07:00:37;5.32;;;4.78;;
48516;SDS011;34310;51.904;4.256;2022-10-31T07:03:05;7.35;;;4.53;;
48516;SDS011;34310;51.904;4.256;2022-10-31T07:05:36;6.65;;;5.03;;
48516;SDS011;34310;51.904;4.256;2022-10-31T07:08:04;5.15;;;4.68;;
48516;SDS011;34310;51.904;4.256;2022-10-31T07:10:34;6.72;;;4.60;;
48516;SDS011;34310;51.904;4.256;2022-10-31T07:13:08;6.30;;;4.93;;
48516;SDS011;34310;51.904;4.256;2022-10-31T07:15:39;5.70;;;4.60;;
48516;SDS011;34310;51.904;4.256;2022-10-31T07:18:08;6.50;;;5.00;;
48516;SDS011;34310;51.904;4.256;2022-10-31T07:20:37;5.97;;;4.80;;
48516;SDS011;34310;51.904;4.256;2022-10-31T07:23:04;4.90;;;4.40;;
48516;SDS011;34310;51.904;4.256;2022-10-31T07:25:32;8.35;;;5.20;;
48516;SDS011;34310;51.904;4.256;2022-10-31T07:27:59;7.25;;;4.97;;
48516;SDS011;34310;51.904;4.256;2022-10-31T07:30:27;6.57;;;5.10;;
48516;SDS011;34310;51.904;4.256;2022-10-31T07:32:54;9.00;;;4.93;;
48516;SDS011;34310;51.904;4.256;2022-10-31T07:35:23;7.82;;;5.30;;
48516;SDS011;34310;51.904;4.256;2022-10-31T07:37:51;6.88;;;5.30;;
48516;SDS011;34310;51.904;4.256;2022-10-31T07:40:19;6.78;;;5.18;;
48516;SDS011;34310;51.904;4.256;2022-10-31T07:42:47;9.52;;;6.03;;
48516;SDS011;34310;51.904;4.256;2022-10-31T07:45:18;7.30;;;5.32;;
48516;SDS011;34310;51.904;4.256;2022-10-31T07:47:50;6.75;;;4.95;;
48516;SDS011;34310;51.904;4.256;2022-10-31T07:50:19;6.85;;;5.68;;
48516;SDS011;34310;51.904;4.256;2022-10-31T07:52:58;6.22;;;5.28;;
48516;SDS011;34310;51.904;4.256;2022-10-31T07:55:30;7.22;;;5.68;;
48516;SDS011;34310;51.904;4.256;2022-10-31T07:57:59;7.85;;;5.80;;
48516;SDS011;34310;51.904;4.256;2022-10-31T08:00:28;6.40;;;5.25;;
48516;SDS011;34310;51.904;4.256;2022-10-31T08:03:17;7.60;;;6.00;;
48516;SDS011;34310;51.904;4.256;2022-10-31T08:05:44;7.85;;;6.00;;
48516;SDS011;34310;51.904;4.256;2022-10-31T08:08:12;6.55;;;5.90;;
48516;SDS011;34310;51.904;4.256;2022-10-31T08:10:40;6.32;;;5.35;;
48516;SDS011;34310;51.904;4.256;2022-10-31T08:13:09;7.95;;;6.10;;
48516;SDS011;34310;51.904;4.256;2022-10-31T08:15:38;7.18;;;6.18;;
48516;SDS011;34310;51.904;4.256;2022-10-31T08:18:14;7.20;;;6.07;;
48516;SDS011;34310;51.904;4.256;2022-10-31T08:20:42;7.80;;;5.80;;
48516;SDS011;34310;51.904;4.256;2022-10-31T08:23:10;7.60;;;5.90;;
48516;SDS011;34310;51.904;4.256;2022-10-31T08:25:38;8.43;;;6.43;;
48516;SDS011;34310;51.904;4.256;2022-10-31T08:28:06;9.23;;;6.30;;
48516;SDS011;34310;51.904;4.256;2022-10-31T08:30:35;6.95;;;5.72;;
48516;SDS011;34310;51.904;4.256;2022-10-31T08:33:04;7.25;;;5.80;;
48516;SDS011;34310;51.904;4.256;2022-10-31T08:35:39;6.90;;;5.93;;
48516;SDS011;34310;51.904;4.256;2022-10-31T08:38:07;8.13;;;5.93;;
48516;SDS011;34310;51.904;4.256;2022-10-31T08:40:36;8.02;;;6.18;;
48516;SDS011;34310;51.904;4.256;2022-10-31T08:43:05;8.98;;;6.53;;
48516;SDS011;34310;51.904;4.256;2022-10-31T08:45:39;9.57;;;7.18;;
48516;SDS011;34310;51.904;4.256;2022-10-31T08:48:11;8.00;;;6.53;;
48516;SDS011;34310;51.904;4.256;2022-10-31T08:50:40;7.40;;;6.20;;
48516;SDS011;34310;51.904;4.256;2022-10-31T08:53:10;9.25;;;6.47;;
48516;SDS011;34310;51.904;4.256;2022-10-31T08:55:39;7.78;;;6.30;;
48516;SDS011;34310;51.904;4.256;2022-10-31T08:58:12;8.65;;;6.53;;
48516;SDS011;34310;51.904;4.256;2022-10-31T09:00:42;7.50;;;6.35;;
48516;SDS011;34310;51.904;4.256;2022-10-31T09:03:11;6.85;;;5.80;;
48516;SDS011;34310;51.904;4.256;2022-10-31T09:05:40;8.02;;;5.80;;
48516;SDS011;34310;51.904;4.256;2022-10-31T09:08:08;8.30;;;6.40;;
48516;SDS011;34310;51.904;4.256;2022-10-31T09:10:42;6.78;;;5.50;;
48516;SDS011;34310;51.904;4.256;2022-10-31T09:13:10;7.82;;;5.93;;
48516;SDS011;34310;51.904;4.256;2022-10-31T09:15:42;7.50;;;5.72;;
48516;SDS011;34310;51.904;4.256;2022-10-31T09:18:12;7.15;;;5.65;;
48516;SDS011;34310;51.904;4.256;2022-10-31T09:20:41;8.30;;;5.47;;
48516;SDS011;34310;51.904;4.256;2022-10-31T09:23:10;6.93;;;6.20;;
48516;SDS011;34310;51.904;4.256;2022-10-31T09:25:42;6.63;;;5.40;;
48516;SDS011;34310;51.904;4.256;2022-10-31T09:28:16;7.07;;;5.40;;
48516;SDS011;34310;51.904;4.256;2022-10-31T09:30:46;6.55;;;5.25;;
48516;SDS011;34310;51.904;4.256;2022-10-31T09:33:14;7.60;;;5.63;;
48516;SDS011;34310;51.904;4.256;2022-10-31T09:35:42;7.50;;;5.80;;
48516;SDS011;34310;51.904;4.256;2022-10-31T09:38:10;8.10;;;5.57;;
48516;SDS011;34310;51.904;4.256;2022-10-31T09:40:41;6.00;;;4.97;;
48516;SDS011;34310;51.904;4.256;2022-10-31T09:43:15;7.03;;;5.40;;
48516;SDS011;34310;51.904;4.256;2022-10-31T09:51:53;8.57;;;5.97;;
48516;SDS011;34310;51.904;4.256;2022-10-31T09:54:32;6.13;;;5.43;;
48516;SDS011;34310;51.904;4.256;2022-10-31T09:57:07;6.25;;;5.57;;
48516;SDS011;34310;51.904;4.256;2022-10-31T09:59:41;6.55;;;5.20;;
48516;SDS011;34310;51.904;4.256;2022-10-31T10:04:49;6.70;;;4.50;;
48516;SDS011;34310;51.904;4.256;2022-10-31T10:10:01;6.28;;;4.68;;
48516;SDS011;34310;51.904;4.256;2022-10-31T10:18:29;5.70;;;4.60;;
48516;SDS011;34310;51.904;4.256;2022-10-31T10:26:37;5.50;;;4.95;;
48516;SDS011;34310;51.904;4.256;2022-10-31T10:31:42;5.88;;;4.60;;
48516;SDS011;34310;51.904;4.256;2022-10-31T10:34:16;5.40;;;4.20;;
48516;SDS011;34310;51.904;4.256;2022-10-31T10:36:51;5.28;;;4.22;;
48516;SDS011;34310;51.904;4.256;2022-10-31T10:39:30;5.68;;;4.45;;
48516;SDS011;34310;51.904;4.256;2022-10-31T10:42:07;4.60;;;4.20;;
48516;SDS011;34310;51.904;4.256;2022-10-31T10:44:57;4.57;;;3.83;;
48516;SDS011;34310;51.904;4.256;2022-10-31T10:47:44;4.43;;;4.00;;
48516;SDS011;34310;51.904;4.256;2022-10-31T10:50:21;4.65;;;3.92;;
48516;SDS011;34310;51.904;4.256;2022-10-31T10:52:57;5.38;;;4.18;;
48516;SDS011;34310;51.904;4.256;2022-10-31T10:55:55;6.60;;;4.53;;
48516;SDS011;34310;51.904;4.256;2022-10-31T10:58:29;4.97;;;3.90;;
48516;SDS011;34310;51.904;4.256;2022-10-31T11:00:56;7.22;;;4.10;;
48516;SDS011;34310;51.904;4.256;2022-10-31T11:03:24;4.95;;;4.15;;
48516;SDS011;34310;51.904;4.256;2022-10-31T11:05:52;5.40;;;4.15;;
48516;SDS011;34310;51.904;4.256;2022-10-31T11:08:34;4.65;;;3.80;;
48516;SDS011;34310;51.904;4.256;2022-10-31T11:13:49;5.28;;;3.90;;
48516;SDS011;34310;51.904;4.256;2022-10-31T11:16:30;4.30;;;3.67;;
48516;SDS011;34310;51.904;4.256;2022-10-31T11:19:16;4.63;;;3.53;;
48516;SDS011;34310;51.904;4.256;2022-10-31T11:21:48;3.75;;;3.20;;
48516;SDS011;34310;51.904;4.256;2022-10-31T11:24:20;3.78;;;3.28;;
48516;SDS011;34310;51.904;4.256;2022-10-31T11:26:49;4.90;;;3.30;;
48516;SDS011;34310;51.904;4.256;2022-10-31T11:29:22;4.03;;;3.30;;
48516;SDS011;34310;51.904;4.256;2022-10-31T11:31:55;5.22;;;3.60;;
48516;SDS011;34310;51.904;4.256;2022-10-31T11:37:44;5.30;;;3.65;;
48516;SDS011;34310;51.904;4.256;2022-10-31T11:39:53;4.30;;;3.70;;
48516;SDS011;34310;51.904;4.256;2022-10-31T11:42:25;4.63;;;4.00;;
48516;SDS011;34310;51.904;4.256;2022-10-31T11:44:56;5.50;;;3.97;;
48516;SDS011;34310;51.904;4.256;2022-10-31T11:47:33;4.55;;;3.80;;
48516;SDS011;34310;51.904;4.256;2022-10-31T11:50:01;5.25;;;4.13;;
48516;SDS011;34310;51.904;4.256;2022-10-31T11:52:36;5.03;;;4.53;;
48516;SDS011;34310;51.904;4.256;2022-10-31T12:02:49;5.55;;;5.03;;
48516;SDS011;34310;51.904;4.256;2022-10-31T12:05:24;6.07;;;5.05;;
48516;SDS011;34310;51.904;4.256;2022-10-31T12:07:58;6.97;;;5.43;;
48516;SDS011;34310;51.904;4.256;2022-10-31T12:10:47;6.28;;;5.47;;
48516;SDS011;34310;51.904;4.256;2022-10-31T12:15:56;7.05;;;5.65;;
48516;SDS011;34310;51.904;4.256;2022-10-31T12:18:41;5.85;;;5.25;;
48516;SDS011;34310;51.904;4.256;2022-10-31T12:40:36;10.93;;;7.30;;
48516;SDS011;34310;51.904;4.256;2022-10-31T12:45:54;8.93;;;6.82;;
48516;SDS011;34310;51.904;4.256;2022-10-31T12:57:37;8.80;;;7.35;;
48516;SDS011;34310;51.904;4.256;2022-10-31T13:00:13;7.93;;;6.95;;
48516;SDS011;34310;51.904;4.256;2022-10-31T13:02:53;11.30;;;7.80;;
48516;SDS011;34310;51.904;4.256;2022-10-31T13:05:39;9.00;;;7.85;;
48516;SDS011;34310;51.904;4.256;2022-10-31T13:08:10;8.80;;;7.90;;
48516;SDS011;34310;51.904;4.256;2022-10-31T13:16:28;8.75;;;7.82;;
48516;SDS011;34310;51.904;4.256;2022-10-31T13:19:17;9.52;;;8.38;;
48516;SDS011;34310;51.904;4.256;2022-10-31T13:21:54;9.13;;;7.80;;
48516;SDS011;34310;51.904;4.256;2022-10-31T13:24:41;8.63;;;7.03;;
48516;SDS011;34310;51.904;4.256;2022-10-31T13:27:26;9.48;;;7.03;;
48516;SDS011;34310;51.904;4.256;2022-10-31T13:32:41;9.40;;;7.05;;
48516;SDS011;34310;51.904;4.256;2022-10-31T13:35:23;13.35;;;7.38;;
48516;SDS011;34310;51.904;4.256;2022-10-31T13:38:16;12.27;;;7.63;;
48516;SDS011;34310;51.904;4.256;2022-10-31T13:43:33;13.20;;;8.20;;
48516;SDS011;34310;51.904;4.256;2022-10-31T13:49:00;11.63;;;8.02;;
48516;SDS011;34310;51.904;4.256;2022-10-31T13:51:28;14.80;;;8.55;;
48516;SDS011;34310;51.904;4.256;2022-10-31T13:53:59;14.32;;;8.20;;
48516;SDS011;34310;51.904;4.256;2022-10-31T13:56:33;13.77;;;8.60;;
48516;SDS011;34310;51.904;4.256;2022-10-31T13:59:03;12.23;;;9.10;;
48516;SDS011;34310;51.904;4.256;2022-10-31T14:01:34;12.88;;;8.63;;
48516;SDS011;34310;51.904;4.256;2022-10-31T14:09:31;10.77;;;8.77;;
48516;SDS011;34310;51.904;4.256;2022-10-31T14:12:00;11.45;;;8.40;;
48516;SDS011;34310;51.904;4.256;2022-10-31T14:14:50;10.40;;;7.35;;
48516;SDS011;34310;51.904;4.256;2022-10-31T14:17:21;11.30;;;8.35;;
48516;SDS011;34310;51.904;4.256;2022-10-31T14:20:00;12.20;;;8.25;;
48516;SDS011;34310;51.904;4.256;2022-10-31T14:22:47;11.17;;;8.17;;
48516;SDS011;34310;51.904;4.256;2022-10-31T14:25:28;11.27;;;8.27;;
48516;SDS011;34310;51.904;4.256;2022-10-31T14:28:17;10.40;;;8.38;;
48516;SDS011;34310;51.904;4.256;2022-10-31T14:31:21;11.02;;;8.50;;
48516;SDS011;34310;51.904;4.256;2022-10-31T14:33:59;11.43;;;7.85;;
48516;SDS011;34310;51.904;4.256;2022-10-31T14:42:41;10.20;;;8.18;;
48516;SDS011;34310;51.904;4.256;2022-10-31T14:50:58;9.50;;;8.23;;
48516;SDS011;34310;51.904;4.256;2022-10-31T14:53:32;11.80;;;8.55;;
48516;SDS011;34310;51.904;4.256;2022-10-31T14:56:02;10.02;;;7.93;;
48516;SDS011;34310;51.904;4.256;2022-10-31T14:58:37;10.52;;;8.80;;
48516;SDS011;34310;51.904;4.256;2022-10-31T15:01:25;9.18;;;7.65;;
48516;SDS011;34310;51.904;4.256;2022-10-31T15:04:16;12.63;;;8.15;;
48516;SDS011;34310;51.904;4.256;2022-10-31T15:07:02;10.98;;;8.38;;
48516;SDS011;34310;51.904;4.256;2022-10-31T15:09:36;10.40;;;8.38;;
48516;SDS011;34310;51.904;4.256;2022-10-31T15:14:51;10.55;;;8.55;;
48516;SDS011;34310;51.904;4.256;2022-10-31T15:17:19;9.80;;;8.00;;
48516;SDS011;34310;51.904;4.256;2022-10-31T15:19:47;10.73;;;8.32;;
48516;SDS011;34310;51.904;4.256;2022-10-31T15:22:18;10.85;;;8.48;;
48516;SDS011;34310;51.904;4.256;2022-10-31T15:24:49;9.50;;;8.10;;
48516;SDS011;34310;51.904;4.256;2022-10-31T15:27:22;9.13;;;7.95;;
48516;SDS011;34310;51.904;4.256;2022-10-31T15:29:52;11.23;;;8.63;;
48516;SDS011;34310;51.904;4.256;2022-10-31T15:32:22;9.25;;;8.10;;
48516;SDS011;34310;51.904;4.256;2022-10-31T15:34:51;11.77;;;8.88;;
48516;SDS011;34310;51.904;4.256;2022-10-31T15:37:20;10.20;;;8.82;;
48516;SDS011;34310;51.904;4.256;2022-10-31T15:39:50;10.73;;;9.05;;
48516;SDS011;34310;51.904;4.256;2022-10-31T15:44:52;10.50;;;8.40;;
48516;SDS011;34310;51.904;4.256;2022-10-31T15:47:28;11.80;;;8.98;;
48516;SDS011;34310;51.904;4.256;2022-10-31T15:49:58;12.57;;;9.43;;
48516;SDS011;34310;51.904;4.256;2022-10-31T15:52:34;12.02;;;9.00;;
48516;SDS011;34310;51.904;4.256;2022-10-31T15:55:18;10.23;;;8.93;;
48516;SDS011;34310;51.904;4.256;2022-10-31T15:57:52;11.30;;;9.10;;
48516;SDS011;34310;51.904;4.256;2022-10-31T16:03:00;11.25;;;9.57;;
48516;SDS011;34310;51.904;4.256;2022-10-31T16:11:01;10.35;;;8.65;;
48516;SDS011;34310;51.904;4.256;2022-10-31T16:13:59;9.23;;;8.20;;
48516;SDS011;34310;51.904;4.256;2022-10-31T16:16:55;10.98;;;9.00;;
48516;SDS011;34310;51.904;4.256;2022-10-31T16:19:32;11.55;;;9.02;;
48516;SDS011;34310;51.904;4.256;2022-10-31T16:22:05;12.70;;;9.30;;
48516;SDS011;34310;51.904;4.256;2022-10-31T16:24:33;11.63;;;8.93;;
48516;SDS011;34310;51.904;4.256;2022-10-31T16:27:46;9.90;;;8.82;;
48516;SDS011;34310;51.904;4.256;2022-10-31T16:30:27;9.68;;;8.60;;
48516;SDS011;34310;51.904;4.256;2022-10-31T16:32:57;8.98;;;7.90;;
48516;SDS011;34310;51.904;4.256;2022-10-31T16:35:34;9.88;;;8.23;;
48516;SDS011;34310;51.904;4.256;2022-10-31T16:38:03;11.05;;;8.88;;
48516;SDS011;34310;51.904;4.256;2022-10-31T16:40:31;9.98;;;8.50;;
48516;SDS011;34310;51.904;4.256;2022-10-31T16:43:00;10.90;;;8.60;;
48516;SDS011;34310;51.904;4.256;2022-10-31T16:45:31;10.88;;;8.95;;
48516;SDS011;34310;51.904;4.256;2022-10-31T16:48:04;10.38;;;8.95;;
48516;SDS011;34310;51.904;4.256;2022-10-31T16:50:32;11.32;;;9.20;;
48516;SDS011;34310;51.904;4.256;2022-10-31T16:52:59;10.70;;;8.88;;
48516;SDS011;34310;51.904;4.256;2022-10-31T16:55:46;10.00;;;8.90;;
48516;SDS011;34310;51.904;4.256;2022-10-31T16:58:28;11.23;;;9.00;;
48516;SDS011;34310;51.904;4.256;2022-10-31T17:00:59;10.30;;;8.60;;
48516;SDS011;34310;51.904;4.256;2022-10-31T17:03:28;10.93;;;8.48;;
48516;SDS011;34310;51.904;4.256;2022-10-31T17:05:56;9.80;;;8.82;;
48516;SDS011;34310;51.904;4.256;2022-10-31T17:08:23;9.95;;;8.52;;
48516;SDS011;34310;51.904;4.256;2022-10-31T17:10:52;10.10;;;8.95;;
48516;SDS011;34310;51.904;4.256;2022-10-31T17:13:22;10.73;;;8.52;;
48516;SDS011;34310;51.904;4.256;2022-10-31T17:15:56;10.55;;;8.85;;
48516;SDS011;34310;51.904;4.256;2022-10-31T17:18:25;10.25;;;8.65;;
48516;SDS011;34310;51.904;4.256;2022-10-31T17:21:03;9.35;;;8.40;;
48516;SDS011;34310;51.904;4.256;2022-10-31T17:23:33;11.18;;;8.70;;
48516;SDS011;34310;51.904;4.256;2022-10-31T17:26:01;10.07;;;8.43;;
48516;SDS011;34310;51.904;4.256;2022-10-31T17:28:28;10.43;;;8.73;;
48516;SDS011;34310;51.904;4.256;2022-10-31T17:30:55;9.18;;;8.13;;
48516;SDS011;34310;51.904;4.256;2022-10-31T17:33:24;9.63;;;8.38;;
48516;SDS011;34310;51.904;4.256;2022-10-31T17:35:52;10.02;;;8.20;;
48516;SDS011;34310;51.904;4.256;2022-10-31T17:38:20;12.57;;;8.10;;
48516;SDS011;34310;51.904;4.256;2022-10-31T17:40:47;13.90;;;8.43;;
48516;SDS011;34310;51.904;4.256;2022-10-31T17:43:15;11.02;;;8.77;;
48516;SDS011;34310;51.904;4.256;2022-10-31T17:45:42;11.65;;;8.48;;
48516;SDS011;34310;51.904;4.256;2022-10-31T17:48:10;16.65;;;9.10;;
48516;SDS011;34310;51.904;4.256;2022-10-31T17:50:38;14.25;;;8.82;;